Tlemcen Zenata, Algeria
Current Conditions -  °F | °C
As of 6:00 AM on Saturday 29 Nov 2014 (Local Time) from DAON Reporting Station
Scattered Clouds Scattered Clouds  
Wind Chill: 52°   Ceiling: Unl
Heat Index: 52°   Visibility: 6mi
Dew Point: 46°   Wind: 7mph
Humidity: 82%   Direction: 140°SE
Pressure: 29.23"   Gusts: NA
Location:  35.01°N, 1.46°W
Report Text: DAON 290500Z 14006KT 9999 FEW026 SCT100 11/08 Q0990
Loading
Personal Weather Stations






























Interactive Weather Map New forecast layout! Learn more

10-Day Weather Forecast

Advertisements
Track Severe Weather on mobile